sensor_id;sensor_type;location;lat;lon;timestamp;P1;durP1;ratioP1;P2;durP2;ratioP2
24034;SDS011;12242;50.952;4.678;2023-03-01T00:01:40;15.05;;;7.15;;
24034;SDS011;12242;50.952;4.678;2023-03-01T00:04:08;17.42;;;7.13;;
24034;SDS011;12242;50.952;4.678;2023-03-01T00:06:35;19.27;;;7.25;;
24034;SDS011;12242;50.952;4.678;2023-03-01T00:09:04;13.50;;;6.72;;
24034;SDS011;12242;50.952;4.678;2023-03-01T00:11:32;22.98;;;7.40;;
24034;SDS011;12242;50.952;4.678;2023-03-01T00:14:01;15.23;;;6.75;;
24034;SDS011;12242;50.952;4.678;2023-03-01T00:16:35;13.18;;;6.53;;
24034;SDS011;12242;50.952;4.678;2023-03-01T00:19:10;13.93;;;6.68;;
24034;SDS011;12242;50.952;4.678;2023-03-01T00:21:40;22.88;;;7.30;;
24034;SDS011;12242;50.952;4.678;2023-03-01T00:24:08;15.63;;;7.00;;
24034;SDS011;12242;50.952;4.678;2023-03-01T00:26:37;16.20;;;6.40;;
24034;SDS011;12242;50.952;4.678;2023-03-01T00:29:05;14.75;;;7.03;;
24034;SDS011;12242;50.952;4.678;2023-03-01T00:31:33;18.45;;;7.57;;
24034;SDS011;12242;50.952;4.678;2023-03-01T00:34:02;13.50;;;7.28;;
24034;SDS011;12242;50.952;4.678;2023-03-01T00:36:33;16.70;;;8.15;;
24034;SDS011;12242;50.952;4.678;2023-03-01T00:39:03;22.85;;;9.60;;
24034;SDS011;12242;50.952;4.678;2023-03-01T00:41:32;31.27;;;12.38;;
24034;SDS011;12242;50.952;4.678;2023-03-01T00:44:01;29.00;;;12.85;;
24034;SDS011;12242;50.952;4.678;2023-03-01T00:46:29;28.85;;;11.82;;
24034;SDS011;12242;50.952;4.678;2023-03-01T00:49:01;28.13;;;11.27;;
24034;SDS011;12242;50.952;4.678;2023-03-01T00:51:31;27.77;;;10.75;;
24034;SDS011;12242;50.952;4.678;2023-03-01T00:54:00;23.35;;;10.02;;
24034;SDS011;12242;50.952;4.678;2023-03-01T00:56:29;21.10;;;9.32;;
24034;SDS011;12242;50.952;4.678;2023-03-01T00:58:58;21.75;;;9.65;;
24034;SDS011;12242;50.952;4.678;2023-03-01T01:01:27;19.77;;;9.50;;
24034;SDS011;12242;50.952;4.678;2023-03-01T01:04:03;18.98;;;8.68;;
24034;SDS011;12242;50.952;4.678;2023-03-01T01:06:34;24.77;;;8.77;;
24034;SDS011;12242;50.952;4.678;2023-03-01T01:09:13;20.02;;;8.93;;
24034;SDS011;12242;50.952;4.678;2023-03-01T01:11:46;21.40;;;8.43;;
24034;SDS011;12242;50.952;4.678;2023-03-01T01:14:15;23.20;;;8.90;;
24034;SDS011;12242;50.952;4.678;2023-03-01T01:16:43;17.85;;;8.20;;
24034;SDS011;12242;50.952;4.678;2023-03-01T01:19:11;22.27;;;8.02;;
24034;SDS011;12242;50.952;4.678;2023-03-01T01:21:40;20.73;;;8.13;;
24034;SDS011;12242;50.952;4.678;2023-03-01T01:24:10;16.15;;;7.97;;
24034;SDS011;12242;50.952;4.678;2023-03-01T01:26:38;20.13;;;8.50;;
24034;SDS011;12242;50.952;4.678;2023-03-01T01:29:06;17.50;;;7.47;;
24034;SDS011;12242;50.952;4.678;2023-03-01T01:31:34;16.73;;;7.68;;
24034;SDS011;12242;50.952;4.678;2023-03-01T01:34:04;17.33;;;8.18;;
24034;SDS011;12242;50.952;4.678;2023-03-01T01:36:34;19.63;;;7.10;;
24034;SDS011;12242;50.952;4.678;2023-03-01T01:39:01;17.33;;;7.93;;
24034;SDS011;12242;50.952;4.678;2023-03-01T01:41:30;18.60;;;7.53;;
24034;SDS011;12242;50.952;4.678;2023-03-01T01:44:11;16.17;;;7.40;;
24034;SDS011;12242;50.952;4.678;2023-03-01T01:47:12;15.85;;;7.72;;
24034;SDS011;12242;50.952;4.678;2023-03-01T01:49:53;16.98;;;7.38;;
24034;SDS011;12242;50.952;4.678;2023-03-01T01:52:33;13.35;;;6.57;;
24034;SDS011;12242;50.952;4.678;2023-03-01T01:55:04;15.20;;;7.07;;
24034;SDS011;12242;50.952;4.678;2023-03-01T02:00:10;15.98;;;6.93;;
24034;SDS011;12242;50.952;4.678;2023-03-01T02:02:46;16.67;;;7.25;;
24034;SDS011;12242;50.952;4.678;2023-03-01T02:05:21;15.30;;;7.05;;
24034;SDS011;12242;50.952;4.678;2023-03-01T02:08:03;14.10;;;6.93;;
24034;SDS011;12242;50.952;4.678;2023-03-01T02:10:32;12.60;;;6.32;;
24034;SDS011;12242;50.952;4.678;2023-03-01T02:13:01;13.45;;;6.28;;
24034;SDS011;12242;50.952;4.678;2023-03-01T02:15:33;17.15;;;7.00;;
24034;SDS011;12242;50.952;4.678;2023-03-01T02:18:03;17.80;;;7.57;;
24034;SDS011;12242;50.952;4.678;2023-03-01T02:23:18;12.10;;;6.35;;
24034;SDS011;12242;50.952;4.678;2023-03-01T02:26:00;14.15;;;7.28;;
24034;SDS011;12242;50.952;4.678;2023-03-01T02:28:40;16.50;;;6.47;;
24034;SDS011;12242;50.952;4.678;2023-03-01T02:31:11;13.82;;;6.43;;
24034;SDS011;12242;50.952;4.678;2023-03-01T02:34:01;13.50;;;6.45;;
24034;SDS011;12242;50.952;4.678;2023-03-01T02:36:34;13.75;;;6.70;;
24034;SDS011;12242;50.952;4.678;2023-03-01T02:39:07;11.88;;;6.03;;
24034;SDS011;12242;50.952;4.678;2023-03-01T02:41:42;13.27;;;6.00;;
24034;SDS011;12242;50.952;4.678;2023-03-01T02:44:13;13.17;;;5.23;;
24034;SDS011;12242;50.952;4.678;2023-03-01T02:46:42;13.10;;;6.05;;
24034;SDS011;12242;50.952;4.678;2023-03-01T02:49:25;13.88;;;6.43;;
24034;SDS011;12242;50.952;4.678;2023-03-01T02:57:30;12.63;;;6.38;;
24034;SDS011;12242;50.952;4.678;2023-03-01T03:00:02;15.25;;;6.05;;
24034;SDS011;12242;50.952;4.678;2023-03-01T03:02:35;12.95;;;6.15;;
24034;SDS011;12242;50.952;4.678;2023-03-01T03:05:10;13.38;;;6.10;;
24034;SDS011;12242;50.952;4.678;2023-03-01T03:07:40;12.35;;;5.93;;
24034;SDS011;12242;50.952;4.678;2023-03-01T03:10:14;14.18;;;6.22;;
24034;SDS011;12242;50.952;4.678;2023-03-01T03:12:54;13.15;;;6.60;;
24034;SDS011;12242;50.952;4.678;2023-03-01T03:15:27;14.80;;;6.30;;
24034;SDS011;12242;50.952;4.678;2023-03-01T03:17:57;14.77;;;6.32;;
24034;SDS011;12242;50.952;4.678;2023-03-01T03:20:26;13.60;;;6.72;;
24034;SDS011;12242;50.952;4.678;2023-03-01T03:22:55;13.63;;;6.20;;
24034;SDS011;12242;50.952;4.678;2023-03-01T03:25:27;13.88;;;6.88;;
24034;SDS011;12242;50.952;4.678;2023-03-01T03:27:56;12.27;;;5.97;;
24034;SDS011;12242;50.952;4.678;2023-03-01T03:30:25;12.25;;;6.20;;
24034;SDS011;12242;50.952;4.678;2023-03-01T03:32:56;13.02;;;6.25;;
24034;SDS011;12242;50.952;4.678;2023-03-01T03:35:28;11.10;;;6.28;;
24034;SDS011;12242;50.952;4.678;2023-03-01T03:37:59;15.07;;;6.47;;
24034;SDS011;12242;50.952;4.678;2023-03-01T03:40:29;13.52;;;5.53;;
24034;SDS011;12242;50.952;4.678;2023-03-01T03:43:00;13.50;;;7.22;;
24034;SDS011;12242;50.952;4.678;2023-03-01T03:45:28;16.85;;;7.22;;
24034;SDS011;12242;50.952;4.678;2023-03-01T03:47:56;13.98;;;6.25;;
24034;SDS011;12242;50.952;4.678;2023-03-01T03:50:23;14.80;;;6.68;;
24034;SDS011;12242;50.952;4.678;2023-03-01T03:52:51;15.35;;;6.25;;
24034;SDS011;12242;50.952;4.678;2023-03-01T03:55:19;14.40;;;6.45;;
24034;SDS011;12242;50.952;4.678;2023-03-01T03:57:47;12.23;;;6.22;;
24034;SDS011;12242;50.952;4.678;2023-03-01T04:00:19;12.48;;;6.63;;
24034;SDS011;12242;50.952;4.678;2023-03-01T04:02:48;13.30;;;6.65;;
24034;SDS011;12242;50.952;4.678;2023-03-01T04:05:18;14.30;;;6.85;;
24034;SDS011;12242;50.952;4.678;2023-03-01T04:07:46;14.10;;;6.72;;
24034;SDS011;12242;50.952;4.678;2023-03-01T04:10:17;13.93;;;6.95;;
24034;SDS011;12242;50.952;4.678;2023-03-01T04:12:45;12.90;;;6.28;;
24034;SDS011;12242;50.952;4.678;2023-03-01T04:15:12;17.17;;;7.25;;
24034;SDS011;12242;50.952;4.678;2023-03-01T04:17:40;13.07;;;6.07;;
24034;SDS011;12242;50.952;4.678;2023-03-01T04:20:13;13.05;;;6.35;;
24034;SDS011;12242;50.952;4.678;2023-03-01T04:22:52;15.82;;;7.25;;
24034;SDS011;12242;50.952;4.678;2023-03-01T04:25:24;15.93;;;6.65;;
24034;SDS011;12242;50.952;4.678;2023-03-01T04:27:52;16.42;;;7.05;;
24034;SDS011;12242;50.952;4.678;2023-03-01T04:30:20;18.17;;;7.55;;
24034;SDS011;12242;50.952;4.678;2023-03-01T04:32:52;11.52;;;4.75;;
24034;SDS011;12242;50.952;4.678;2023-03-01T04:35:19;13.43;;;6.90;;
24034;SDS011;12242;50.952;4.678;2023-03-01T04:37:47;13.65;;;6.32;;
24034;SDS011;12242;50.952;4.678;2023-03-01T04:40:16;15.25;;;6.60;;
24034;SDS011;12242;50.952;4.678;2023-03-01T04:42:43;15.60;;;6.38;;
24034;SDS011;12242;50.952;4.678;2023-03-01T04:45:11;14.23;;;7.20;;
24034;SDS011;12242;50.952;4.678;2023-03-01T04:47:40;15.52;;;6.57;;
24034;SDS011;12242;50.952;4.678;2023-03-01T04:50:10;14.80;;;6.85;;
24034;SDS011;12242;50.952;4.678;2023-03-01T04:52:39;13.52;;;6.70;;
24034;SDS011;12242;50.952;4.678;2023-03-01T04:55:07;13.85;;;6.80;;
24034;SDS011;12242;50.952;4.678;2023-03-01T04:57:36;15.73;;;7.13;;
24034;SDS011;12242;50.952;4.678;2023-03-01T05:00:04;13.05;;;6.43;;
24034;SDS011;12242;50.952;4.678;2023-03-01T05:02:53;10.27;;;4.72;;
24034;SDS011;12242;50.952;4.678;2023-03-01T05:05:27;15.95;;;6.88;;
24034;SDS011;12242;50.952;4.678;2023-03-01T05:07:58;16.25;;;6.97;;
24034;SDS011;12242;50.952;4.678;2023-03-01T05:10:28;14.45;;;6.53;;
24034;SDS011;12242;50.952;4.678;2023-03-01T05:12:57;14.23;;;6.65;;
24034;SDS011;12242;50.952;4.678;2023-03-01T05:15:26;12.52;;;6.57;;
24034;SDS011;12242;50.952;4.678;2023-03-01T05:17:55;16.83;;;7.13;;
24034;SDS011;12242;50.952;4.678;2023-03-01T05:20:26;14.80;;;6.85;;
24034;SDS011;12242;50.952;4.678;2023-03-01T05:22:56;17.08;;;7.35;;
24034;SDS011;12242;50.952;4.678;2023-03-01T05:25:33;13.43;;;6.25;;
24034;SDS011;12242;50.952;4.678;2023-03-01T05:28:01;12.90;;;6.50;;
24034;SDS011;12242;50.952;4.678;2023-03-01T05:30:32;13.80;;;6.50;;
24034;SDS011;12242;50.952;4.678;2023-03-01T05:33:00;14.40;;;6.50;;
24034;SDS011;12242;50.952;4.678;2023-03-01T05:35:28;16.13;;;7.10;;
24034;SDS011;12242;50.952;4.678;2023-03-01T05:37:56;14.55;;;7.22;;
24034;SDS011;12242;50.952;4.678;2023-03-01T05:40:23;13.98;;;6.47;;
24034;SDS011;12242;50.952;4.678;2023-03-01T05:42:55;13.10;;;6.30;;
24034;SDS011;12242;50.952;4.678;2023-03-01T05:45:24;10.20;;;4.93;;
24034;SDS011;12242;50.952;4.678;2023-03-01T05:47:53;13.73;;;6.57;;
24034;SDS011;12242;50.952;4.678;2023-03-01T05:50:22;15.48;;;7.10;;
24034;SDS011;12242;50.952;4.678;2023-03-01T05:53:11;16.05;;;7.05;;
24034;SDS011;12242;50.952;4.678;2023-03-01T05:55:42;15.00;;;7.35;;
24034;SDS011;12242;50.952;4.678;2023-03-01T05:58:11;13.23;;;7.43;;
24034;SDS011;12242;50.952;4.678;2023-03-01T06:00:46;15.30;;;6.97;;
24034;SDS011;12242;50.952;4.678;2023-03-01T06:03:16;17.60;;;7.75;;
24034;SDS011;12242;50.952;4.678;2023-03-01T06:05:44;14.13;;;6.63;;
24034;SDS011;12242;50.952;4.678;2023-03-01T06:08:12;13.32;;;6.35;;
24034;SDS011;12242;50.952;4.678;2023-03-01T06:10:40;16.83;;;6.38;;
24034;SDS011;12242;50.952;4.678;2023-03-01T06:13:07;17.73;;;7.47;;
24034;SDS011;12242;50.952;4.678;2023-03-01T06:15:35;18.42;;;7.70;;
24034;SDS011;12242;50.952;4.678;2023-03-01T06:18:03;15.85;;;7.05;;
24034;SDS011;12242;50.952;4.678;2023-03-01T06:20:31;14.80;;;6.82;;
24034;SDS011;12242;50.952;4.678;2023-03-01T06:22:58;15.10;;;6.53;;
24034;SDS011;12242;50.952;4.678;2023-03-01T06:25:27;19.92;;;8.05;;
24034;SDS011;12242;50.952;4.678;2023-03-01T06:27:54;15.73;;;7.50;;
24034;SDS011;12242;50.952;4.678;2023-03-01T06:30:23;16.08;;;7.47;;
24034;SDS011;12242;50.952;4.678;2023-03-01T06:32:52;14.57;;;7.20;;
24034;SDS011;12242;50.952;4.678;2023-03-01T06:35:27;17.73;;;7.55;;
24034;SDS011;12242;50.952;4.678;2023-03-01T06:37:57;15.68;;;7.15;;
24034;SDS011;12242;50.952;4.678;2023-03-01T06:40:29;14.93;;;7.40;;
24034;SDS011;12242;50.952;4.678;2023-03-01T06:42:58;18.10;;;7.43;;
24034;SDS011;12242;50.952;4.678;2023-03-01T06:45:26;20.52;;;8.18;;
24034;SDS011;12242;50.952;4.678;2023-03-01T06:48:00;17.65;;;6.88;;
24034;SDS011;12242;50.952;4.678;2023-03-01T06:50:30;17.88;;;7.28;;
24034;SDS011;12242;50.952;4.678;2023-03-01T06:52:58;15.73;;;7.47;;
24034;SDS011;12242;50.952;4.678;2023-03-01T06:55:26;15.90;;;7.35;;
24034;SDS011;12242;50.952;4.678;2023-03-01T06:57:57;15.45;;;7.03;;
24034;SDS011;12242;50.952;4.678;2023-03-01T07:00:26;15.55;;;6.35;;
24034;SDS011;12242;50.952;4.678;2023-03-01T07:02:54;16.00;;;7.38;;
24034;SDS011;12242;50.952;4.678;2023-03-01T07:05:24;16.55;;;7.65;;
24034;SDS011;12242;50.952;4.678;2023-03-01T07:07:52;17.63;;;8.18;;
24034;SDS011;12242;50.952;4.678;2023-03-01T07:10:20;16.50;;;6.38;;
24034;SDS011;12242;50.952;4.678;2023-03-01T07:12:48;12.98;;;5.82;;
24034;SDS011;12242;50.952;4.678;2023-03-01T07:15:16;13.43;;;6.40;;
24034;SDS011;12242;50.952;4.678;2023-03-01T07:17:44;17.73;;;6.43;;
24034;SDS011;12242;50.952;4.678;2023-03-01T07:20:14;13.20;;;5.63;;
24034;SDS011;12242;50.952;4.678;2023-03-01T07:22:42;11.82;;;5.78;;
24034;SDS011;12242;50.952;4.678;2023-03-01T07:25:09;14.77;;;6.72;;
24034;SDS011;12242;50.952;4.678;2023-03-01T07:27:38;15.23;;;6.38;;
24034;SDS011;12242;50.952;4.678;2023-03-01T07:30:05;18.42;;;7.97;;
24034;SDS011;12242;50.952;4.678;2023-03-01T07:32:33;16.25;;;7.20;;
24034;SDS011;12242;50.952;4.678;2023-03-01T07:35:01;16.48;;;6.78;;
24034;SDS011;12242;50.952;4.678;2023-03-01T07:37:29;18.00;;;5.97;;
24034;SDS011;12242;50.952;4.678;2023-03-01T07:39:57;13.25;;;6.45;;
24034;SDS011;12242;50.952;4.678;2023-03-01T07:42:24;14.23;;;6.25;;
24034;SDS011;12242;50.952;4.678;2023-03-01T07:44:52;12.80;;;6.30;;
24034;SDS011;12242;50.952;4.678;2023-03-01T07:47:19;14.98;;;5.95;;
24034;SDS011;12242;50.952;4.678;2023-03-01T07:49:47;14.07;;;6.40;;
24034;SDS011;12242;50.952;4.678;2023-03-01T07:52:14;12.93;;;6.50;;
24034;SDS011;12242;50.952;4.678;2023-03-01T07:54:42;14.55;;;6.40;;
24034;SDS011;12242;50.952;4.678;2023-03-01T07:57:11;14.48;;;6.72;;
24034;SDS011;12242;50.952;4.678;2023-03-01T07:59:39;15.57;;;5.72;;
24034;SDS011;12242;50.952;4.678;2023-03-01T08:02:07;16.73;;;6.68;;
24034;SDS011;12242;50.952;4.678;2023-03-01T08:04:36;15.98;;;6.90;;
24034;SDS011;12242;50.952;4.678;2023-03-01T08:07:04;15.10;;;7.15;;
24034;SDS011;12242;50.952;4.678;2023-03-01T08:09:34;16.42;;;6.88;;
24034;SDS011;12242;50.952;4.678;2023-03-01T08:12:03;15.80;;;6.88;;
24034;SDS011;12242;50.952;4.678;2023-03-01T08:14:32;15.98;;;7.35;;
24034;SDS011;12242;50.952;4.678;2023-03-01T08:16:59;14.20;;;6.97;;
24034;SDS011;12242;50.952;4.678;2023-03-01T08:19:29;15.48;;;7.35;;
24034;SDS011;12242;50.952;4.678;2023-03-01T08:21:57;16.08;;;7.10;;
24034;SDS011;12242;50.952;4.678;2023-03-01T08:24:26;14.15;;;6.78;;
24034;SDS011;12242;50.952;4.678;2023-03-01T08:26:55;15.95;;;7.10;;
24034;SDS011;12242;50.952;4.678;2023-03-01T08:29:22;15.07;;;6.78;;
24034;SDS011;12242;50.952;4.678;2023-03-01T08:31:51;15.32;;;6.72;;
24034;SDS011;12242;50.952;4.678;2023-03-01T08:34:19;14.52;;;6.88;;
24034;SDS011;12242;50.952;4.678;2023-03-01T08:36:46;14.80;;;6.75;;
24034;SDS011;12242;50.952;4.678;2023-03-01T08:39:15;11.30;;;6.43;;
24034;SDS011;12242;50.952;4.678;2023-03-01T08:41:45;13.38;;;7.15;;
24034;SDS011;12242;50.952;4.678;2023-03-01T08:44:14;11.75;;;6.38;;
24034;SDS011;12242;50.952;4.678;2023-03-01T08:46:44;17.23;;;7.38;;
24034;SDS011;12242;50.952;4.678;2023-03-01T08:49:13;15.40;;;6.50;;
24034;SDS011;12242;50.952;4.678;2023-03-01T08:51:42;12.63;;;6.38;;
24034;SDS011;12242;50.952;4.678;2023-03-01T08:54:12;16.77;;;6.60;;
24034;SDS011;12242;50.952;4.678;2023-03-01T08:56:41;13.82;;;6.25;;
24034;SDS011;12242;50.952;4.678;2023-03-01T08:59:13;13.77;;;5.90;;
24034;SDS011;12242;50.952;4.678;2023-03-01T09:01:42;14.32;;;5.97;;
24034;SDS011;12242;50.952;4.678;2023-03-01T09:04:12;11.10;;;4.80;;
24034;SDS011;12242;50.952;4.678;2023-03-01T09:06:42;13.35;;;5.82;;
24034;SDS011;12242;50.952;4.678;2023-03-01T09:09:12;11.18;;;5.50;;
24034;SDS011;12242;50.952;4.678;2023-03-01T09:11:43;10.63;;;5.47;;
24034;SDS011;12242;50.952;4.678;2023-03-01T09:14:13;11.32;;;5.50;;
24034;SDS011;12242;50.952;4.678;2023-03-01T09:16:41;12.05;;;5.75;;
24034;SDS011;12242;50.952;4.678;2023-03-01T09:19:09;12.45;;;5.78;;
24034;SDS011;12242;50.952;4.678;2023-03-01T09:21:38;12.88;;;5.30;;
24034;SDS011;12242;50.952;4.678;2023-03-01T09:24:13;11.77;;;4.97;;
24034;SDS011;12242;50.952;4.678;2023-03-01T09:26:42;11.35;;;5.65;;
24034;SDS011;12242;50.952;4.678;2023-03-01T09:29:16;12.38;;;5.80;;
24034;SDS011;12242;50.952;4.678;2023-03-01T09:31:43;9.02;;;4.68;;
24034;SDS011;12242;50.952;4.678;2023-03-01T09:34:11;11.52;;;5.15;;
24034;SDS011;12242;50.952;4.678;2023-03-01T09:36:40;10.20;;;4.85;;
24034;SDS011;12242;50.952;4.678;2023-03-01T09:39:08;9.85;;;5.07;;
24034;SDS011;12242;50.952;4.678;2023-03-01T09:44:19;10.20;;;5.38;;
24034;SDS011;12242;50.952;4.678;2023-03-01T09:46:48;9.00;;;5.13;;
24034;SDS011;12242;50.952;4.678;2023-03-01T09:49:21;15.88;;;5.65;;
24034;SDS011;12242;50.952;4.678;2023-03-01T09:54:28;12.00;;;5.63;;
24034;SDS011;12242;50.952;4.678;2023-03-01T10:00:19;11.10;;;4.75;;
24034;SDS011;12242;50.952;4.678;2023-03-01T10:03:11;14.32;;;5.68;;
24034;SDS011;12242;50.952;4.678;2023-03-01T10:05:46;13.30;;;5.32;;
24034;SDS011;12242;50.952;4.678;2023-03-01T10:08:36;11.60;;;5.45;;
24034;SDS011;12242;50.952;4.678;2023-03-01T10:11:15;13.83;;;5.80;;
24034;SDS011;12242;50.952;4.678;2023-03-01T10:17:00;10.98;;;5.20;;
24034;SDS011;12242;50.952;4.678;2023-03-01T10:19:46;13.77;;;6.25;;
24034;SDS011;12242;50.952;4.678;2023-03-01T10:22:21;12.37;;;5.20;;
24034;SDS011;12242;50.952;4.678;2023-03-01T10:24:52;10.48;;;5.25;;
24034;SDS011;12242;50.952;4.678;2023-03-01T10:29:56;9.77;;;4.50;;
24034;SDS011;12242;50.952;4.678;2023-03-01T10:32:29;13.15;;;5.40;;
24034;SDS011;12242;50.952;4.678;2023-03-01T10:34:57;11.93;;;5.38;;
24034;SDS011;12242;50.952;4.678;2023-03-01T10:37:25;10.27;;;5.25;;
24034;SDS011;12242;50.952;4.678;2023-03-01T10:40:15;11.48;;;5.85;;
24034;SDS011;12242;50.952;4.678;2023-03-01T10:42:48;10.63;;;5.32;;
24034;SDS011;12242;50.952;4.678;2023-03-01T10:45:25;13.68;;;5.32;;
24034;SDS011;12242;50.952;4.678;2023-03-01T10:48:10;10.63;;;4.80;;
24034;SDS011;12242;50.952;4.678;2023-03-01T10:50:45;11.52;;;4.75;;
24034;SDS011;12242;50.952;4.678;2023-03-01T10:53:23;10.30;;;4.78;;
24034;SDS011;12242;50.952;4.678;2023-03-01T10:58:37;10.80;;;4.97;;
24034;SDS011;12242;50.952;4.678;2023-03-01T11:03:45;11.13;;;5.07;;
24034;SDS011;12242;50.952;4.678;2023-03-01T11:06:29;9.20;;;4.75;;
24034;SDS011;12242;50.952;4.678;2023-03-01T11:08:57;11.60;;;5.10;;
24034;SDS011;12242;50.952;4.678;2023-03-01T11:11:45;15.00;;;5.25;;
24034;SDS011;12242;50.952;4.678;2023-03-01T11:14:22;10.88;;;4.93;;
24034;SDS011;12242;50.952;4.678;2023-03-01T11:17:15;12.32;;;5.00;;
24034;SDS011;12242;50.952;4.678;2023-03-01T11:22:43;11.70;;;4.53;;
24034;SDS011;12242;50.952;4.678;2023-03-01T11:25:23;10.48;;;4.50;;
24034;SDS011;12242;50.952;4.678;2023-03-01T11:27:53;11.57;;;4.78;;
24034;SDS011;12242;50.952;4.678;2023-03-01T11:38:45;9.88;;;4.63;;
24034;SDS011;12242;50.952;4.678;2023-03-01T11:41:15;9.43;;;4.55;;
24034;SDS011;12242;50.952;4.678;2023-03-01T11:44:03;9.90;;;4.80;;
24034;SDS011;12242;50.952;4.678;2023-03-01T11:49:32;10.75;;;4.65;;
24034;SDS011;12242;50.952;4.678;2023-03-01T11:52:42;10.00;;;5.18;;
24034;SDS011;12242;50.952;4.678;2023-03-01T12:17:51;13.18;;;5.13;;
24034;SDS011;12242;50.952;4.678;2023-03-01T12:20:33;10.93;;;4.68;;
24034;SDS011;12242;50.952;4.678;2023-03-01T12:34:16;13.02;;;5.22;;
24034;SDS011;12242;50.952;4.678;2023-03-01T12:37:29;11.20;;;5.35;;
24034;SDS011;12242;50.952;4.678;2023-03-01T12:40:02;10.60;;;5.45;;
24034;SDS011;12242;50.952;4.678;2023-03-01T12:45:48;12.38;;;5.28;;
24034;SDS011;12242;50.952;4.678;2023-03-01T12:48:24;9.05;;;5.15;;
24034;SDS011;12242;50.952;4.678;2023-03-01T12:50:59;12.65;;;5.35;;
24034;SDS011;12242;50.952;4.678;2023-03-01T12:53:34;9.27;;;4.40;;
24034;SDS011;12242;50.952;4.678;2023-03-01T12:58:39;10.27;;;5.35;;
24034;SDS011;12242;50.952;4.678;2023-03-01T13:17:51;9.40;;;4.72;;
24034;SDS011;12242;50.952;4.678;2023-03-01T13:20:45;10.85;;;5.00;;
24034;SDS011;12242;50.952;4.678;2023-03-01T13:28:44;9.02;;;5.05;;
24034;SDS011;12242;50.952;4.678;2023-03-01T13:36:58;11.07;;;5.05;;
24034;SDS011;12242;50.952;4.678;2023-03-01T13:39:29;10.32;;;5.13;;
24034;SDS011;12242;50.952;4.678;2023-03-01T13:41:59;10.32;;;5.38;;
24034;SDS011;12242;50.952;4.678;2023-03-01T13:44:34;13.65;;;5.70;;
24034;SDS011;12242;50.952;4.678;2023-03-01T13:49:41;10.52;;;4.95;;
24034;SDS011;12242;50.952;4.678;2023-03-01T13:52:58;10.80;;;5.13;;
24034;SDS011;12242;50.952;4.678;2023-03-01T14:00:27;9.35;;;4.80;;
24034;SDS011;12242;50.952;4.678;2023-03-01T14:03:15;10.85;;;4.80;;
24034;SDS011;12242;50.952;4.678;2023-03-01T14:08:41;8.15;;;4.13;;
24034;SDS011;12242;50.952;4.678;2023-03-01T14:19:27;8.50;;;4.55;;
24034;SDS011;12242;50.952;4.678;2023-03-01T14:24:49;9.68;;;4.70;;
24034;SDS011;12242;50.952;4.678;2023-03-01T14:27:18;9.30;;;4.70;;
24034;SDS011;12242;50.952;4.678;2023-03-01T14:30:00;11.00;;;4.68;;
24034;SDS011;12242;50.952;4.678;2023-03-01T14:32:30;12.68;;;5.22;;
24034;SDS011;12242;50.952;4.678;2023-03-01T14:34:59;8.73;;;4.70;;
24034;SDS011;12242;50.952;4.678;2023-03-01T14:37:29;11.98;;;5.05;;
24034;SDS011;12242;50.952;4.678;2023-03-01T14:39:58;13.00;;;4.95;;
24034;SDS011;12242;50.952;4.678;2023-03-01T14:42:33;11.10;;;5.18;;
24034;SDS011;12242;50.952;4.678;2023-03-01T14:45:03;13.52;;;5.55;;
24034;SDS011;12242;50.952;4.678;2023-03-01T14:47:34;9.52;;;4.78;;
24034;SDS011;12242;50.952;4.678;2023-03-01T14:50:14;12.00;;;5.25;;
24034;SDS011;12242;50.952;4.678;2023-03-01T14:52:55;8.10;;;4.43;;
24034;SDS011;12242;50.952;4.678;2023-03-01T14:55:38;8.15;;;3.60;;
24034;SDS011;12242;50.952;4.678;2023-03-01T14:58:12;11.45;;;4.50;;
24034;SDS011;12242;50.952;4.678;2023-03-01T15:00:46;10.35;;;4.18;;
24034;SDS011;12242;50.952;4.678;2023-03-01T15:03:24;11.18;;;4.32;;
24034;SDS011;12242;50.952;4.678;2023-03-01T15:05:56;10.43;;;4.72;;
24034;SDS011;12242;50.952;4.678;2023-03-01T15:08:24;10.00;;;4.55;;
24034;SDS011;12242;50.952;4.678;2023-03-01T15:10:58;9.45;;;4.35;;
24034;SDS011;12242;50.952;4.678;2023-03-01T15:13:44;9.35;;;4.50;;
24034;SDS011;12242;50.952;4.678;2023-03-01T15:16:13;9.82;;;4.55;;
24034;SDS011;12242;50.952;4.678;2023-03-01T15:18:47;9.80;;;4.20;;
24034;SDS011;12242;50.952;4.678;2023-03-01T15:21:23;8.80;;;4.45;;
24034;SDS011;12242;50.952;4.678;2023-03-01T15:24:17;10.25;;;4.28;;
24034;SDS011;12242;50.952;4.678;2023-03-01T15:26:57;10.13;;;4.32;;
24034;SDS011;12242;50.952;4.678;2023-03-01T15:29:29;10.20;;;4.35;;
24034;SDS011;12242;50.952;4.678;2023-03-01T15:32:01;10.88;;;3.97;;
24034;SDS011;12242;50.952;4.678;2023-03-01T15:34:32;9.80;;;3.83;;
24034;SDS011;12242;50.952;4.678;2023-03-01T15:37:01;9.27;;;4.10;;
24034;SDS011;12242;50.952;4.678;2023-03-01T15:39:39;9.35;;;4.40;;
24034;SDS011;12242;50.952;4.678;2023-03-01T15:44:40;11.52;;;4.15;;
24034;SDS011;12242;50.952;4.678;2023-03-01T15:47:22;10.13;;;4.00;;
24034;SDS011;12242;50.952;4.678;2023-03-01T15:49:53;9.20;;;3.78;;
24034;SDS011;12242;50.952;4.678;2023-03-01T15:52:26;8.18;;;4.22;;
24034;SDS011;12242;50.952;4.678;2023-03-01T15:54:57;10.95;;;4.15;;
24034;SDS011;12242;50.952;4.678;2023-03-01T15:57:28;10.00;;;4.27;;
24034;SDS011;12242;50.952;4.678;2023-03-01T15:59:56;8.75;;;3.55;;
24034;SDS011;12242;50.952;4.678;2023-03-01T16:02:24;7.75;;;3.80;;
24034;SDS011;12242;50.952;4.678;2023-03-01T16:04:52;8.30;;;4.10;;
24034;SDS011;12242;50.952;4.678;2023-03-01T16:07:20;8.68;;;3.63;;
24034;SDS011;12242;50.952;4.678;2023-03-01T16:09:48;9.32;;;4.15;;
24034;SDS011;12242;50.952;4.678;2023-03-01T16:12:15;8.35;;;3.72;;
24034;SDS011;12242;50.952;4.678;2023-03-01T16:14:43;8.02;;;3.83;;
24034;SDS011;12242;50.952;4.678;2023-03-01T16:17:11;6.70;;;3.55;;
24034;SDS011;12242;50.952;4.678;2023-03-01T16:19:39;10.88;;;3.80;;
24034;SDS011;12242;50.952;4.678;2023-03-01T16:22:09;9.13;;;4.55;;
24034;SDS011;12242;50.952;4.678;2023-03-01T16:24:37;10.82;;;4.10;;
24034;SDS011;12242;50.952;4.678;2023-03-01T16:27:05;9.18;;;3.95;;
24034;SDS011;12242;50.952;4.678;2023-03-01T16:29:32;7.60;;;3.80;;
24034;SDS011;12242;50.952;4.678;2023-03-01T16:32:00;10.00;;;3.85;;
24034;SDS011;12242;50.952;4.678;2023-03-01T16:34:29;9.70;;;4.07;;
24034;SDS011;12242;50.952;4.678;2023-03-01T16:36:56;8.43;;;3.88;;
24034;SDS011;12242;50.952;4.678;2023-03-01T16:39:24;8.30;;;3.90;;
24034;SDS011;12242;50.952;4.678;2023-03-01T16:41:52;10.00;;;4.47;;
24034;SDS011;12242;50.952;4.678;2023-03-01T16:44:19;10.00;;;4.32;;
24034;SDS011;12242;50.952;4.678;2023-03-01T16:46:47;10.68;;;4.35;;
24034;SDS011;12242;50.952;4.678;2023-03-01T16:49:15;10.13;;;4.65;;
24034;SDS011;12242;50.952;4.678;2023-03-01T16:51:42;18.67;;;4.25;;
24034;SDS011;12242;50.952;4.678;2023-03-01T16:54:11;11.60;;;3.95;;
24034;SDS011;12242;50.952;4.678;2023-03-01T16:56:38;9.35;;;4.05;;
24034;SDS011;12242;50.952;4.678;2023-03-01T16:59:06;10.45;;;4.03;;
24034;SDS011;12242;50.952;4.678;2023-03-01T17:01:34;9.07;;;3.75;;
24034;SDS011;12242;50.952;4.678;2023-03-01T17:04:06;11.25;;;4.20;;
24034;SDS011;12242;50.952;4.678;2023-03-01T17:06:37;12.95;;;4.35;;
24034;SDS011;12242;50.952;4.678;2023-03-01T17:09:04;9.93;;;4.25;;
24034;SDS011;12242;50.952;4.678;2023-03-01T17:11:32;10.20;;;3.67;;
24034;SDS011;12242;50.952;4.678;2023-03-01T17:14:00;9.93;;;4.03;;
24034;SDS011;12242;50.952;4.678;2023-03-01T17:16:27;13.80;;;4.03;;
24034;SDS011;12242;50.952;4.678;2023-03-01T17:18:55;7.50;;;3.58;;